Decoded Metar for FQPB (PEMBA in MOZAMBIQUE) (IATA:POL) | Meteo·Mobile Aviation Weather
aviador You're here:

FQPB Decoded Metar

PEMBA in MOZAMBIQUE
Report Time2018-12-16 14:00:00
UTC Time2018-12-16 15:08:28
Flight Rules Old
Wind140° at 09 kt
W.Decomp.*RWY 17: 8.2 kt HW 3.7 kt LCW
RWY 08: 3.7 kt HW 8.2 kt RCW
W.Rank140° ranks 7
Current wind is below 140° avg. (9.7)
Visibility9999 m
Phenomena:N/A
Clouds:Scattered 020 Hf
Few CB 025 Hf
Expected CloudBase > 1,200 ft AGL from Temp-Dew spread
CeilingNone
Temp28°C (ISA +13)
Dew Point25°C (84% RH)
Heat Index32.7°C
QNH1012 hPa
Density Alt2,146 ft
Elevation164 ft
Report Wrong Elevation
Raw Report
FQPB 161400Z 14009KT 9999 SCT020 FEW025CB BKN/// 28/25 Q1012 RMK
CB TO W/NW N=

Extra information for FQPB:More info

Metar Taf Metar & Taf Last 4 Metars F.Rules Stats Wind Profile Meteogram Temp Stats Airport Information Weather charts Add Link Nearby VenuesMetar ALERT Operation Metar Decoded Social comments